Boca Raton, FL (33487)

2:55 AM EDT on July 26, 2016 (GMT -0400)
Bel Lido | | Change Station

Elev 10 ft 26.40 °N, 80.07 °W | Updated 27 seconds ago

Clear
Clear
83.5 °F
Feels Like 93 °F
N
4.6
Wind Variable Wind from SE
Gusts 4.6 mph

Today
High -- | Low -- °F
--% Chance of Precip.
Yesterday
High -- | Low -- °F
Precip. -- in
Pressure 30.06 in
Visibility 10.0 miles
Clouds Clear
Heat Index 93 °F
Dew Point 77 °F
Humidity 81%
Rainfall 0.02 in
Snow Depth Not available.
6:42 AM 8:10 PM
Waning Gibbous, 58% visible
METAR KPMP 260653Z AUTO 13007KT 10SM CLR 29/24 A3005 RMK AO2 SLP177 T02940244
Pressure 30.06 in
Visibility 10.0 miles
Clouds Clear
Heat Index 93 °F
Dew Point 77 °F
Humidity 81%
Rainfall 0.02 in
Snow Depth Not available.
6:42 AM 8:10 PM
Waning Gibbous, 58% visible
METAR KPMP 260653Z AUTO 13007KT 10SM CLR 29/24 A3005 RMK AO2 SLP177 T02940244

10-Day Weather Forecast

Almanac

Astronomy

Jul. 26, 2016 Rise Set
Actual Time
Civil Twilight
Nautical Twilight
Astronomical Twilight
Moon
Length of Visible Light
Length of Day
Tomorrow will be .
, % of the Moon is Illuminated

Today's Extremes

State Highs State Lows

Community

WunderPhotos

Upload Photos

1,927,551 photos uploaded!

WunderBlog® & News

Nearby

Air Quality

  Air Quality AQ Index Pollutant
Not available.

Snow Depth

Station Depth Elevation

Earthquake Activity

City Distance Mag. Time & Date
Minimum magnitude displayed is 2.5.

Coastal Water Temperatures

Place Temperature

Stations

Nearby Weather Stations

Station Location Temp. Windchill Dew Point Humidity Wind Precip. Elev Updated Type
                   

Watches & Warnings

There are currently no watches in effect.